sensor_id;sensor_type;location;lat;lon;timestamp;pressure;altitude;pressure_sealevel;temperature;humidity
24031;BME280;12240;51.142;22.486;2023-05-03T00:00:06;99874.25;;;11.52;100.00
24031;BME280;12240;51.142;22.486;2023-05-03T00:02:35;99871.91;;;11.49;100.00
24031;BME280;12240;51.142;22.486;2023-05-03T00:05:07;99877.22;;;11.49;100.00
24031;BME280;12240;51.142;22.486;2023-05-03T00:07:43;99871.06;;;11.49;100.00
24031;BME280;12240;51.142;22.486;2023-05-03T00:10:12;99868.94;;;11.52;100.00
24031;BME280;12240;51.142;22.486;2023-05-03T00:12:40;99871.59;;;11.52;100.00
24031;BME280;12240;51.142;22.486;2023-05-03T00:15:09;99873.88;;;11.47;100.00
24031;BME280;12240;51.142;22.486;2023-05-03T00:17:37;99874.88;;;11.46;100.00
24031;BME280;12240;51.142;22.486;2023-05-03T00:20:11;99875.41;;;11.50;100.00
24031;BME280;12240;51.142;22.486;2023-05-03T00:22:40;99885.22;;;11.49;100.00
24031;BME280;12240;51.142;22.486;2023-05-03T00:25:08;99886.22;;;11.48;100.00
24031;BME280;12240;51.142;22.486;2023-05-03T00:27:37;99881.31;;;11.44;100.00
24031;BME280;12240;51.142;22.486;2023-05-03T00:30:05;99886.66;;;11.44;100.00
24031;BME280;12240;51.142;22.486;2023-05-03T00:32:35;99892.84;;;11.44;100.00
24031;BME280;12240;51.142;22.486;2023-05-03T00:35:04;99885.69;;;11.45;100.00
24031;BME280;12240;51.142;22.486;2023-05-03T00:37:32;99888.06;;;11.48;100.00
24031;BME280;12240;51.142;22.486;2023-05-03T00:40:00;99886.09;;;11.50;100.00
24031;BME280;12240;51.142;22.486;2023-05-03T00:42:34;99893.22;;;11.49;100.00
24031;BME280;12240;51.142;22.486;2023-05-03T00:45:04;99903.09;;;11.39;100.00
24031;BME280;12240;51.142;22.486;2023-05-03T00:47:35;99899.19;;;11.34;100.00
24031;BME280;12240;51.142;22.486;2023-05-03T00:50:04;99907.47;;;11.31;100.00
24031;BME280;12240;51.142;22.486;2023-05-03T00:52:34;99903.28;;;11.19;100.00
24031;BME280;12240;51.142;22.486;2023-05-03T00:55:03;99892.03;;;11.25;100.00
24031;BME280;12240;51.142;22.486;2023-05-03T00:57:31;99893.19;;;11.22;100.00
24031;BME280;12240;51.142;22.486;2023-05-03T01:00:00;99897.56;;;11.14;100.00
24031;BME280;12240;51.142;22.486;2023-05-03T01:02:28;99897.28;;;11.07;100.00
24031;BME280;12240;51.142;22.486;2023-05-03T01:04:57;99903.72;;;11.05;100.00
24031;BME280;12240;51.142;22.486;2023-05-03T01:16:20;99898.84;;;11.00;100.00
24031;BME280;12240;51.142;22.486;2023-05-03T01:18:49;99901.22;;;11.03;100.00
24031;BME280;12240;51.142;22.486;2023-05-03T01:21:20;99909.06;;;11.05;100.00
24031;BME280;12240;51.142;22.486;2023-05-03T01:24:03;99902.75;;;11.06;100.00
24031;BME280;12240;51.142;22.486;2023-05-03T01:26:34;99899.81;;;10.99;100.00
24031;BME280;12240;51.142;22.486;2023-05-03T01:29:02;99902.34;;;10.91;100.00
24031;BME280;12240;51.142;22.486;2023-05-03T01:31:56;99905.00;;;10.91;100.00
24031;BME280;12240;51.142;22.486;2023-05-03T01:37:15;99906.97;;;10.89;100.00
24031;BME280;12240;51.142;22.486;2023-05-03T01:39:54;99907.69;;;10.91;100.00
24031;BME280;12240;51.142;22.486;2023-05-03T01:42:25;99904.00;;;10.92;100.00
24031;BME280;12240;51.142;22.486;2023-05-03T01:44:54;99912.28;;;10.89;100.00
24031;BME280;12240;51.142;22.486;2023-05-03T01:47:23;99920.44;;;10.88;100.00
24031;BME280;12240;51.142;22.486;2023-05-03T01:49:51;99922.25;;;10.87;100.00
24031;BME280;12240;51.142;22.486;2023-05-03T01:52:22;99914.53;;;10.84;100.00
24031;BME280;12240;51.142;22.486;2023-05-03T01:54:50;99917.91;;;10.86;100.00
24031;BME280;12240;51.142;22.486;2023-05-03T01:57:18;99920.88;;;10.83;100.00
24031;BME280;12240;51.142;22.486;2023-05-03T01:59:46;99918.91;;;10.76;100.00
24031;BME280;12240;51.142;22.486;2023-05-03T02:02:14;99917.78;;;10.78;100.00
24031;BME280;12240;51.142;22.486;2023-05-03T02:04:42;99913.00;;;10.72;100.00
24031;BME280;12240;51.142;22.486;2023-05-03T02:07:12;99914.72;;;10.73;100.00
24031;BME280;12240;51.142;22.486;2023-05-03T02:09:40;99913.28;;;10.69;100.00
24031;BME280;12240;51.142;22.486;2023-05-03T02:12:08;99909.50;;;10.62;100.00
24031;BME280;12240;51.142;22.486;2023-05-03T02:14:38;99903.03;;;10.65;100.00
24031;BME280;12240;51.142;22.486;2023-05-03T02:17:06;99902.38;;;10.63;100.00
24031;BME280;12240;51.142;22.486;2023-05-03T02:19:35;99901.09;;;10.67;100.00
24031;BME280;12240;51.142;22.486;2023-05-03T02:22:03;99899.28;;;10.67;100.00
24031;BME280;12240;51.142;22.486;2023-05-03T02:24:31;99898.16;;;10.60;100.00
24031;BME280;12240;51.142;22.486;2023-05-03T02:27:03;99898.84;;;10.62;100.00
24031;BME280;12240;51.142;22.486;2023-05-03T02:29:32;99902.78;;;10.68;100.00
24031;BME280;12240;51.142;22.486;2023-05-03T02:32:02;99903.91;;;10.65;100.00
24031;BME280;12240;51.142;22.486;2023-05-03T02:34:33;99898.84;;;10.62;100.00
24031;BME280;12240;51.142;22.486;2023-05-03T02:37:01;99904.72;;;10.56;100.00
24031;BME280;12240;51.142;22.486;2023-05-03T02:39:29;99912.31;;;10.61;100.00
24031;BME280;12240;51.142;22.486;2023-05-03T02:41:59;99899.72;;;10.63;100.00
24031;BME280;12240;51.142;22.486;2023-05-03T02:44:28;99900.53;;;10.63;100.00
24031;BME280;12240;51.142;22.486;2023-05-03T02:46:58;99902.50;;;10.61;100.00
24031;BME280;12240;51.142;22.486;2023-05-03T02:49:27;99907.00;;;10.61;100.00
24031;BME280;12240;51.142;22.486;2023-05-03T02:51:55;99905.28;;;10.59;100.00
24031;BME280;12240;51.142;22.486;2023-05-03T02:54:24;99912.03;;;10.64;100.00
24031;BME280;12240;51.142;22.486;2023-05-03T02:56:53;99904.47;;;10.69;100.00
24031;BME280;12240;51.142;22.486;2023-05-03T02:59:21;99913.03;;;10.63;100.00
24031;BME280;12240;51.142;22.486;2023-05-03T03:01:50;99920.16;;;10.62;100.00
24031;BME280;12240;51.142;22.486;2023-05-03T03:04:19;99921.28;;;10.69;100.00
24031;BME280;12240;51.142;22.486;2023-05-03T03:06:47;99923.25;;;10.67;100.00
24031;BME280;12240;51.142;22.486;2023-05-03T03:09:15;99928.72;;;10.66;100.00
24031;BME280;12240;51.142;22.486;2023-05-03T03:11:45;99933.34;;;10.64;100.00
24031;BME280;12240;51.142;22.486;2023-05-03T03:14:14;99929.56;;;10.66;100.00
24031;BME280;12240;51.142;22.486;2023-05-03T03:16:43;99930.66;;;10.64;100.00
24031;BME280;12240;51.142;22.486;2023-05-03T03:19:12;99929.13;;;10.71;100.00
24031;BME280;12240;51.142;22.486;2023-05-03T03:21:41;99929.56;;;10.66;100.00
24031;BME280;12240;51.142;22.486;2023-05-03T03:24:10;99931.94;;;10.69;100.00
24031;BME280;12240;51.142;22.486;2023-05-03T03:26:40;99933.34;;;10.64;100.00
24031;BME280;12240;51.142;22.486;2023-05-03T03:29:08;99937.66;;;10.65;100.00
24031;BME280;12240;51.142;22.486;2023-05-03T03:31:43;99936.69;;;10.66;100.00
24031;BME280;12240;51.142;22.486;2023-05-03T03:34:12;99944.25;;;10.70;100.00
24031;BME280;12240;51.142;22.486;2023-05-03T03:36:40;99950.97;;;10.65;100.00
24031;BME280;12240;51.142;22.486;2023-05-03T03:39:09;99954.63;;;10.64;100.00
24031;BME280;12240;51.142;22.486;2023-05-03T03:41:40;99947.22;;;10.67;100.00
24031;BME280;12240;51.142;22.486;2023-05-03T03:44:08;99953.38;;;10.68;100.00
24031;BME280;12240;51.142;22.486;2023-05-03T03:46:36;99947.06;;;10.59;100.00
24031;BME280;12240;51.142;22.486;2023-05-03T03:49:04;99950.56;;;10.59;100.00
24031;BME280;12240;51.142;22.486;2023-05-03T03:51:32;99949.03;;;10.57;100.00
24031;BME280;12240;51.142;22.486;2023-05-03T03:54:00;99956.72;;;10.60;100.00
24031;BME280;12240;51.142;22.486;2023-05-03T03:56:35;99953.53;;;10.66;100.00
24031;BME280;12240;51.142;22.486;2023-05-03T03:59:04;99958.28;;;10.63;100.00
24031;BME280;12240;51.142;22.486;2023-05-03T04:01:33;99958.28;;;10.63;100.00
24031;BME280;12240;51.142;22.486;2023-05-03T04:04:01;99963.63;;;10.63;100.00
24031;BME280;12240;51.142;22.486;2023-05-03T04:06:30;99965.00;;;10.67;100.00
24031;BME280;12240;51.142;22.486;2023-05-03T04:09:02;99966.81;;;10.56;100.00
24031;BME280;12240;51.142;22.486;2023-05-03T04:11:33;99968.09;;;10.62;100.00
24031;BME280;12240;51.142;22.486;2023-05-03T04:14:03;99977.38;;;10.68;100.00
24031;BME280;12240;51.142;22.486;2023-05-03T04:16:32;99978.88;;;10.70;100.00
24031;BME280;12240;51.142;22.486;2023-05-03T04:19:03;99987.44;;;10.74;100.00
24031;BME280;12240;51.142;22.486;2023-05-03T04:21:33;99986.88;;;10.61;100.00
24031;BME280;12240;51.142;22.486;2023-05-03T04:24:03;99999.19;;;10.62;100.00
24031;BME280;12240;51.142;22.486;2023-05-03T04:26:33;99987.41;;;10.54;100.00
24031;BME280;12240;51.142;22.486;2023-05-03T04:29:12;99997.34;;;10.52;100.00
24031;BME280;12240;51.142;22.486;2023-05-03T04:31:43;99990.22;;;10.53;100.00
24031;BME280;12240;51.142;22.486;2023-05-03T04:34:12;100002.66;;;10.33;100.00
24031;BME280;12240;51.142;22.486;2023-05-03T04:36:46;100007.28;;;10.31;100.00
24031;BME280;12240;51.142;22.486;2023-05-03T04:39:16;100004.56;;;10.22;100.00
24031;BME280;12240;51.142;22.486;2023-05-03T04:41:46;100010.81;;;10.11;100.00
24031;BME280;12240;51.142;22.486;2023-05-03T04:44:14;100017.00;;;10.12;100.00
24031;BME280;12240;51.142;22.486;2023-05-03T04:46:44;100026.97;;;10.19;100.00
24031;BME280;12240;51.142;22.486;2023-05-03T04:49:16;100033.97;;;10.20;100.00
24031;BME280;12240;51.142;22.486;2023-05-03T04:51:46;100036.47;;;10.12;100.00
24031;BME280;12240;51.142;22.486;2023-05-03T04:54:18;100043.59;;;10.12;100.00
24031;BME280;12240;51.142;22.486;2023-05-03T04:56:47;100046.53;;;9.88;100.00
24031;BME280;12240;51.142;22.486;2023-05-03T04:59:18;100052.44;;;9.92;100.00
24031;BME280;12240;51.142;22.486;2023-05-03T05:01:47;100058.28;;;9.86;100.00
24031;BME280;12240;51.142;22.486;2023-05-03T05:04:16;100061.13;;;9.94;100.00
24031;BME280;12240;51.142;22.486;2023-05-03T05:06:51;100065.22;;;9.77;100.00
24031;BME280;12240;51.142;22.486;2023-05-03T05:09:27;100077.81;;;9.75;100.00
24031;BME280;12240;51.142;22.486;2023-05-03T05:11:58;100078.53;;;9.57;100.00
24031;BME280;12240;51.142;22.486;2023-05-03T05:14:33;100084.09;;;9.54;100.00
24031;BME280;12240;51.142;22.486;2023-05-03T05:17:01;100089.28;;;9.55;100.00
24031;BME280;12240;51.142;22.486;2023-05-03T05:19:30;100102.31;;;9.58;100.00
24031;BME280;12240;51.142;22.486;2023-05-03T05:21:59;100101.72;;;9.55;100.00
24031;BME280;12240;51.142;22.486;2023-05-03T05:24:37;100109.97;;;9.52;100.00
24031;BME280;12240;51.142;22.486;2023-05-03T05:27:05;100119.81;;;9.40;100.00
24031;BME280;12240;51.142;22.486;2023-05-03T05:29:34;100117.53;;;9.35;100.00
24031;BME280;12240;51.142;22.486;2023-05-03T05:32:03;100123.22;;;9.31;100.00
24031;BME280;12240;51.142;22.486;2023-05-03T05:34:33;100124.81;;;9.33;100.00
24031;BME280;12240;51.142;22.486;2023-05-03T05:37:15;100125.03;;;9.30;100.00
24031;BME280;12240;51.142;22.486;2023-05-03T05:39:51;100130.91;;;9.45;100.00
24031;BME280;12240;51.142;22.486;2023-05-03T05:42:22;100136.22;;;9.45;100.00
24031;BME280;12240;51.142;22.486;2023-05-03T05:44:50;100131.97;;;9.54;100.00
24031;BME280;12240;51.142;22.486;2023-05-03T05:47:20;100139.22;;;9.52;100.00
24031;BME280;12240;51.142;22.486;2023-05-03T05:49:51;100151.78;;;9.50;100.00
24031;BME280;12240;51.142;22.486;2023-05-03T05:52:20;100151.66;;;9.51;100.00
24031;BME280;12240;51.142;22.486;2023-05-03T05:54:48;100158.94;;;9.49;100.00
24031;BME280;12240;51.142;22.486;2023-05-03T05:57:17;100161.66;;;9.59;100.00
24031;BME280;12240;51.142;22.486;2023-05-03T05:59:45;100166.38;;;9.55;100.00
24031;BME280;12240;51.142;22.486;2023-05-03T06:02:14;100169.03;;;9.55;100.00
24031;BME280;12240;51.142;22.486;2023-05-03T06:04:50;100167.44;;;9.64;100.00
24031;BME280;12240;51.142;22.486;2023-05-03T06:07:18;100175.75;;;9.70;100.00
24031;BME280;12240;51.142;22.486;2023-05-03T06:09:47;100182.13;;;9.47;100.00
24031;BME280;12240;51.142;22.486;2023-05-03T06:12:15;100185.16;;;9.74;100.00
24031;BME280;12240;51.142;22.486;2023-05-03T06:14:44;100189.03;;;9.70;100.00
24031;BME280;12240;51.142;22.486;2023-05-03T06:17:32;100190.63;;;9.73;100.00
24031;BME280;12240;51.142;22.486;2023-05-03T06:20:01;100189.19;;;9.89;100.00
24031;BME280;12240;51.142;22.486;2023-05-03T06:22:31;100202.31;;;10.02;100.00
24031;BME280;12240;51.142;22.486;2023-05-03T06:24:59;100208.41;;;9.93;100.00
24031;BME280;12240;51.142;22.486;2023-05-03T06:27:29;100201.78;;;10.08;100.00
24031;BME280;12240;51.142;22.486;2023-05-03T06:29:57;100199.84;;;10.21;100.00
24031;BME280;12240;51.142;22.486;2023-05-03T06:32:26;100196.56;;;10.58;100.00
24031;BME280;12240;51.142;22.486;2023-05-03T06:34:54;100206.41;;;10.68;100.00
24031;BME280;12240;51.142;22.486;2023-05-03T06:37:22;100210.44;;;10.92;100.00
24031;BME280;12240;51.142;22.486;2023-05-03T06:39:50;100206.38;;;10.98;100.00
24031;BME280;12240;51.142;22.486;2023-05-03T06:42:19;100205.94;;;10.93;100.00
24031;BME280;12240;51.142;22.486;2023-05-03T06:44:49;100203.44;;;11.01;100.00
24031;BME280;12240;51.142;22.486;2023-05-03T06:47:17;100206.59;;;11.25;100.00
24031;BME280;12240;51.142;22.486;2023-05-03T06:49:47;100199.78;;;11.51;100.00
24031;BME280;12240;51.142;22.486;2023-05-03T06:52:15;100200.63;;;11.42;100.00
24031;BME280;12240;51.142;22.486;2023-05-03T06:54:43;100201.50;;;11.52;100.00
24031;BME280;12240;51.142;22.486;2023-05-03T06:57:12;100187.28;;;11.61;100.00
24031;BME280;12240;51.142;22.486;2023-05-03T06:59:40;100196.19;;;11.81;100.00
24031;BME280;12240;51.142;22.486;2023-05-03T07:02:08;100201.00;;;11.87;100.00
24031;BME280;12240;51.142;22.486;2023-05-03T07:04:38;100192.09;;;11.96;100.00
24031;BME280;12240;51.142;22.486;2023-05-03T07:07:07;100194.09;;;12.03;100.00
24031;BME280;12240;51.142;22.486;2023-05-03T07:09:35;100197.47;;;12.05;100.00
24031;BME280;12240;51.142;22.486;2023-05-03T07:12:10;100190.84;;;12.19;100.00
24031;BME280;12240;51.142;22.486;2023-05-03T07:14:39;100193.22;;;12.22;100.00
24031;BME280;12240;51.142;22.486;2023-05-03T07:17:08;100190.63;;;12.49;100.00
24031;BME280;12240;51.142;22.486;2023-05-03T07:19:37;100179.50;;;12.53;100.00
24031;BME280;12240;51.142;22.486;2023-05-03T07:22:05;100181.88;;;12.56;100.00
24031;BME280;12240;51.142;22.486;2023-05-03T07:24:33;100183.16;;;12.62;100.00
24031;BME280;12240;51.142;22.486;2023-05-03T07:27:02;100180.06;;;12.57;100.00
24031;BME280;12240;51.142;22.486;2023-05-03T07:29:30;100174.66;;;12.76;100.00
24031;BME280;12240;51.142;22.486;2023-05-03T07:31:58;100171.84;;;12.77;100.00
24031;BME280;12240;51.142;22.486;2023-05-03T07:34:26;100173.09;;;12.73;100.00
24031;BME280;12240;51.142;22.486;2023-05-03T07:36:55;100170.84;;;12.78;100.00
24031;BME280;12240;51.142;22.486;2023-05-03T07:39:23;100171.69;;;12.69;100.00
24031;BME280;12240;51.142;22.486;2023-05-03T07:41:51;100164.44;;;12.62;100.00
24031;BME280;12240;51.142;22.486;2023-05-03T07:44:20;100171.97;;;12.76;100.00
24031;BME280;12240;51.142;22.486;2023-05-03T07:46:51;100169.44;;;12.74;100.00
24031;BME280;12240;51.142;22.486;2023-05-03T07:49:19;100171.47;;;12.90;100.00
24031;BME280;12240;51.142;22.486;2023-05-03T07:51:47;100181.97;;;13.01;100.00
24031;BME280;12240;51.142;22.486;2023-05-03T07:54:15;100166.59;;;12.85;100.00
24031;BME280;12240;51.142;22.486;2023-05-03T07:56:44;100168.50;;;13.03;100.00
24031;BME280;12240;51.142;22.486;2023-05-03T07:59:12;100163.94;;;13.13;100.00
24031;BME280;12240;51.142;22.486;2023-05-03T08:01:40;100161.88;;;13.07;100.00
24031;BME280;12240;51.142;22.486;2023-05-03T08:04:08;100171.81;;;13.14;100.00
24031;BME280;12240;51.142;22.486;2023-05-03T08:06:37;100170.28;;;13.12;100.00
24031;BME280;12240;51.142;22.486;2023-05-03T08:09:07;100161.19;;;13.05;100.00
24031;BME280;12240;51.142;22.486;2023-05-03T08:11:35;100167.94;;;13.26;100.00
24031;BME280;12240;51.142;22.486;2023-05-03T08:14:03;100172.88;;;13.48;100.00
24031;BME280;12240;51.142;22.486;2023-05-03T08:16:32;100171.13;;;13.57;100.00
24031;BME280;12240;51.142;22.486;2023-05-03T08:19:00;100164.03;;;13.65;100.00
24031;BME280;12240;51.142;22.486;2023-05-03T08:21:30;100160.66;;;13.81;100.00
24031;BME280;12240;51.142;22.486;2023-05-03T08:24:01;100159.69;;;13.90;100.00
24031;BME280;12240;51.142;22.486;2023-05-03T08:26:33;100159.31;;;13.67;100.00
24031;BME280;12240;51.142;22.486;2023-05-03T08:29:01;100166.38;;;13.68;100.00
24031;BME280;12240;51.142;22.486;2023-05-03T08:31:30;100162.75;;;13.95;100.00
24031;BME280;12240;51.142;22.486;2023-05-03T08:33:58;100156.00;;;14.08;100.00
24031;BME280;12240;51.142;22.486;2023-05-03T08:36:30;100156.00;;;14.26;100.00
24031;BME280;12240;51.142;22.486;2023-05-03T08:39:01;100150.72;;;14.34;100.00
24031;BME280;12240;51.142;22.486;2023-05-03T08:41:31;100156.44;;;14.39;100.00
24031;BME280;12240;51.142;22.486;2023-05-03T08:44:00;100156.19;;;14.33;100.00
24031;BME280;12240;51.142;22.486;2023-05-03T08:46:31;100164.41;;;14.57;100.00
24031;BME280;12240;51.142;22.486;2023-05-03T08:49:00;100163.22;;;14.51;100.00
24031;BME280;12240;51.142;22.486;2023-05-03T08:51:28;100157.03;;;14.59;100.00
24031;BME280;12240;51.142;22.486;2023-05-03T08:53:57;100173.75;;;14.78;100.00
24031;BME280;12240;51.142;22.486;2023-05-03T08:56:33;100160.31;;;14.70;100.00
24031;BME280;12240;51.142;22.486;2023-05-03T08:59:06;100176.88;;;14.99;100.00
24031;BME280;12240;51.142;22.486;2023-05-03T09:01:37;100180.00;;;15.29;100.00
24031;BME280;12240;51.142;22.486;2023-05-03T09:04:07;100177.84;;;14.90;100.00
24031;BME280;12240;51.142;22.486;2023-05-03T09:06:36;100171.25;;;15.18;100.00
24031;BME280;12240;51.142;22.486;2023-05-03T09:09:06;100176.53;;;15.02;100.00
24031;BME280;12240;51.142;22.486;2023-05-03T09:11:37;100169.63;;;14.15;100.00
24031;BME280;12240;51.142;22.486;2023-05-03T09:14:17;100187.84;;;13.59;100.00
24031;BME280;12240;51.142;22.486;2023-05-03T09:16:46;100186.78;;;13.69;100.00
24031;BME280;12240;51.142;22.486;2023-05-03T09:19:15;100190.00;;;14.08;100.00
24031;BME280;12240;51.142;22.486;2023-05-03T09:21:45;100187.41;;;14.24;100.00
24031;BME280;12240;51.142;22.486;2023-05-03T09:24:20;100179.66;;;13.95;100.00
24031;BME280;12240;51.142;22.486;2023-05-03T09:26:50;100194.28;;;14.19;100.00
24031;BME280;12240;51.142;22.486;2023-05-03T09:29:33;100195.28;;;13.82;100.00
24031;BME280;12240;51.142;22.486;2023-05-03T09:32:04;100198.19;;;14.07;100.00
24031;BME280;12240;51.142;22.486;2023-05-03T09:34:34;100198.69;;;14.28;100.00
24031;BME280;12240;51.142;22.486;2023-05-03T09:37:04;100196.69;;;14.12;100.00
24031;BME280;12240;51.142;22.486;2023-05-03T09:39:32;100192.84;;;13.27;100.00
24031;BME280;12240;51.142;22.486;2023-05-03T09:42:17;100197.72;;;13.76;100.00
24031;BME280;12240;51.142;22.486;2023-05-03T09:44:47;100203.00;;;13.23;100.00
24031;BME280;12240;51.142;22.486;2023-05-03T09:47:19;100217.81;;;13.45;100.00
24031;BME280;12240;51.142;22.486;2023-05-03T09:49:48;100216.75;;;13.55;100.00
24031;BME280;12240;51.142;22.486;2023-05-03T09:52:16;100212.25;;;13.73;100.00
24031;BME280;12240;51.142;22.486;2023-05-03T09:54:45;100213.47;;;13.61;100.00
24031;BME280;12240;51.142;22.486;2023-05-03T09:57:14;100214.69;;;13.84;100.00
24031;BME280;12240;51.142;22.486;2023-05-03T09:59:44;100210.09;;;14.12;100.00
24031;BME280;12240;51.142;22.486;2023-05-03T10:02:13;100219.31;;;14.27;100.00
24031;BME280;12240;51.142;22.486;2023-05-03T10:04:49;100214.38;;;14.23;100.00
24031;BME280;12240;51.142;22.486;2023-05-03T10:07:21;100212.13;;;13.03;100.00
24031;BME280;12240;51.142;22.486;2023-05-03T10:09:50;100235.88;;;13.33;100.00
24031;BME280;12240;51.142;22.486;2023-05-03T10:12:19;100232.56;;;13.49;100.00
24031;BME280;12240;51.142;22.486;2023-05-03T10:14:51;100241.00;;;13.71;100.00
24031;BME280;12240;51.142;22.486;2023-05-03T10:17:28;100230.44;;;12.88;100.00
24031;BME280;12240;51.142;22.486;2023-05-03T10:20:34;100243.28;;;13.22;100.00
24031;BME280;12240;51.142;22.486;2023-05-03T10:25:35;100240.47;;;13.68;100.00
24031;BME280;12240;51.142;22.486;2023-05-03T10:28:05;100239.09;;;13.81;100.00
24031;BME280;12240;51.142;22.486;2023-05-03T10:30:39;100243.00;;;13.69;100.00
24031;BME280;12240;51.142;22.486;2023-05-03T10:35:51;100246.75;;;13.32;100.00
24031;BME280;12240;51.142;22.486;2023-05-03T10:38:25;100242.19;;;13.15;100.00
24031;BME280;12240;51.142;22.486;2023-05-03T10:40:55;100244.59;;;13.35;100.00
24031;BME280;12240;51.142;22.486;2023-05-03T10:46:03;100253.34;;;13.37;100.00
24031;BME280;12240;51.142;22.486;2023-05-03T10:48:33;100251.19;;;13.41;100.00
24031;BME280;12240;51.142;22.486;2023-05-03T10:53:55;100249.00;;;13.54;100.00
24031;BME280;12240;51.142;22.486;2023-05-03T10:56:23;100244.97;;;13.67;100.00
24031;BME280;12240;51.142;22.486;2023-05-03T10:58:52;100249.50;;;13.67;100.00
24031;BME280;12240;51.142;22.486;2023-05-03T11:01:26;100260.22;;;13.67;100.00
24031;BME280;12240;51.142;22.486;2023-05-03T11:04:11;100247.25;;;13.45;100.00
24031;BME280;12240;51.142;22.486;2023-05-03T11:06:40;100252.81;;;13.96;100.00
24031;BME280;12240;51.142;22.486;2023-05-03T11:09:09;100256.91;;;13.73;100.00
24031;BME280;12240;51.142;22.486;2023-05-03T11:11:41;100256.75;;;13.57;100.00
24031;BME280;12240;51.142;22.486;2023-05-03T11:14:10;100256.75;;;13.74;100.00
24031;BME280;12240;51.142;22.486;2023-05-03T11:16:40;100254.00;;;13.66;100.00
24031;BME280;12240;51.142;22.486;2023-05-03T11:19:18;100251.28;;;13.49;100.00
24031;BME280;12240;51.142;22.486;2023-05-03T11:21:46;100252.06;;;13.59;100.00
24031;BME280;12240;51.142;22.486;2023-05-03T11:24:15;100253.88;;;13.85;100.00
24031;BME280;12240;51.142;22.486;2023-05-03T11:26:44;100256.72;;;14.01;100.00
24031;BME280;12240;51.142;22.486;2023-05-03T11:29:13;100254.25;;;14.08;100.00
24031;BME280;12240;51.142;22.486;2023-05-03T11:31:41;100251.59;;;14.08;100.00
24031;BME280;12240;51.142;22.486;2023-05-03T11:34:11;100259.50;;;14.27;100.00
24031;BME280;12240;51.142;22.486;2023-05-03T11:36:41;100249.66;;;14.18;100.00
24031;BME280;12240;51.142;22.486;2023-05-03T11:39:11;100254.72;;;14.39;100.00
24031;BME280;12240;51.142;22.486;2023-05-03T11:41:40;100241.84;;;14.25;100.00
24031;BME280;12240;51.142;22.486;2023-05-03T11:44:09;100247.53;;;14.04;100.00
24031;BME280;12240;51.142;22.486;2023-05-03T11:46:46;100247.69;;;14.20;100.00
24031;BME280;12240;51.142;22.486;2023-05-03T11:49:18;100249.44;;;13.94;100.00
24031;BME280;12240;51.142;22.486;2023-05-03T11:51:49;100245.81;;;13.68;100.00
24031;BME280;12240;51.142;22.486;2023-05-03T11:54:22;100248.41;;;13.60;100.00
24031;BME280;12240;51.142;22.486;2023-05-03T11:56:56;100254.84;;;13.67;100.00
24031;BME280;12240;51.142;22.486;2023-05-03T11:59:38;100259.00;;;13.79;100.00
24031;BME280;12240;51.142;22.486;2023-05-03T12:02:09;100256.25;;;14.06;100.00
24031;BME280;12240;51.142;22.486;2023-05-03T12:04:41;100248.00;;;14.60;100.00
24031;BME280;12240;51.142;22.486;2023-05-03T12:07:13;100241.91;;;14.76;100.00
24031;BME280;12240;51.142;22.486;2023-05-03T12:09:45;100231.47;;;14.90;100.00
24031;BME280;12240;51.142;22.486;2023-05-03T12:12:27;100222.25;;;14.67;100.00
24031;BME280;12240;51.142;22.486;2023-05-03T12:15:01;100229.19;;;14.52;100.00
24031;BME280;12240;51.142;22.486;2023-05-03T12:17:35;100231.69;;;14.28;100.00
24031;BME280;12240;51.142;22.486;2023-05-03T12:20:20;100220.56;;;14.23;100.00
24031;BME280;12240;51.142;22.486;2023-05-03T12:22:59;100230.19;;;14.26;100.00
24031;BME280;12240;51.142;22.486;2023-05-03T12:25:33;100226.34;;;14.28;100.00
24031;BME280;12240;51.142;22.486;2023-05-03T12:28:05;100214.75;;;14.45;100.00
24031;BME280;12240;51.142;22.486;2023-05-03T12:30:38;100206.44;;;14.82;100.00
24031;BME280;12240;51.142;22.486;2023-05-03T12:33:08;100190.69;;;14.79;100.00
24031;BME280;12240;51.142;22.486;2023-05-03T12:35:37;100189.66;;;14.80;100.00
24031;BME280;12240;51.142;22.486;2023-05-03T12:38:08;100181.53;;;14.64;100.00
24031;BME280;12240;51.142;22.486;2023-05-03T12:40:37;100171.56;;;14.74;100.00
24031;BME280;12240;51.142;22.486;2023-05-03T12:43:06;100171.63;;;14.56;100.00
24031;BME280;12240;51.142;22.486;2023-05-03T12:45:35;100167.84;;;15.08;100.00
24031;BME280;12240;51.142;22.486;2023-05-03T12:48:08;100170.38;;;15.76;100.00
24031;BME280;12240;51.142;22.486;2023-05-03T12:50:36;100152.28;;;15.78;100.00
24031;BME280;12240;51.142;22.486;2023-05-03T12:53:06;100144.88;;;15.64;100.00
24031;BME280;12240;51.142;22.486;2023-05-03T12:55:38;100154.06;;;14.95;100.00
24031;BME280;12240;51.142;22.486;2023-05-03T12:58:11;100152.50;;;14.51;100.00
24031;BME280;12240;51.142;22.486;2023-05-03T13:00:59;100163.72;;;14.80;100.00
24031;BME280;12240;51.142;22.486;2023-05-03T13:03:30;100161.13;;;15.04;100.00
24031;BME280;12240;51.142;22.486;2023-05-03T13:06:02;100169.06;;;15.72;100.00
24031;BME280;12240;51.142;22.486;2023-05-03T13:08:41;100150.88;;;15.00;100.00
24031;BME280;12240;51.142;22.486;2023-05-03T13:11:12;100161.31;;;15.61;100.00
24031;BME280;12240;51.142;22.486;2023-05-03T13:13:40;100158.97;;;15.66;100.00